sensor_id;sensor_type;location;lat;lon;timestamp;pressure;altitude;pressure_sealevel;temperature;humidity
4617;BME280;2321;42.704;23.384;2023-04-24T00:01:04;95220.00;;;12.12;100.00
4617;BME280;2321;42.704;23.384;2023-04-24T00:03:34;95214.47;;;12.14;100.00
4617;BME280;2321;42.704;23.384;2023-04-24T00:06:01;95212.00;;;12.12;100.00
4617;BME280;2321;42.704;23.384;2023-04-24T00:08:28;95214.25;;;12.08;100.00
4617;BME280;2321;42.704;23.384;2023-04-24T00:10:55;95207.31;;;12.07;100.00
4617;BME280;2321;42.704;23.384;2023-04-24T00:13:21;95205.03;;;12.04;100.00
4617;BME280;2321;42.704;23.384;2023-04-24T00:15:48;95200.13;;;12.08;100.00
4617;BME280;2321;42.704;23.384;2023-04-24T00:18:15;95192.53;;;12.05;100.00
4617;BME280;2321;42.704;23.384;2023-04-24T00:20:43;95187.59;;;12.02;100.00
4617;BME280;2321;42.704;23.384;2023-04-24T00:23:11;95177.94;;;11.87;100.00
4617;BME280;2321;42.704;23.384;2023-04-24T00:25:39;95197.03;;;11.84;100.00
4617;BME280;2321;42.704;23.384;2023-04-24T00:28:06;95182.66;;;11.78;100.00
4617;BME280;2321;42.704;23.384;2023-04-24T00:30:33;95185.16;;;11.80;100.00
4617;BME280;2321;42.704;23.384;2023-04-24T00:33:00;95184.31;;;11.79;100.00
4617;BME280;2321;42.704;23.384;2023-04-24T00:35:26;95187.41;;;11.76;100.00
4617;BME280;2321;42.704;23.384;2023-04-24T00:37:55;95190.47;;;11.73;100.00
4617;BME280;2321;42.704;23.384;2023-04-24T00:40:22;95186.16;;;11.72;100.00
4617;BME280;2321;42.704;23.384;2023-04-24T00:42:49;95181.03;;;11.70;100.00
4617;BME280;2321;42.704;23.384;2023-04-24T00:45:16;95184.72;;;11.69;100.00
4617;BME280;2321;42.704;23.384;2023-04-24T00:47:43;95184.72;;;11.69;100.00
4617;BME280;2321;42.704;23.384;2023-04-24T00:50:10;95197.25;;;11.62;100.00
4617;BME280;2321;42.704;23.384;2023-04-24T00:52:38;95184.91;;;11.47;100.00
4617;BME280;2321;42.704;23.384;2023-04-24T00:55:08;95195.56;;;11.47;100.00
4617;BME280;2321;42.704;23.384;2023-04-24T00:57:35;95182.66;;;11.51;100.00
4617;BME280;2321;42.704;23.384;2023-04-24T01:00:03;95182.47;;;11.52;100.00
4617;BME280;2321;42.704;23.384;2023-04-24T01:02:33;95189.00;;;11.57;100.00
4617;BME280;2321;42.704;23.384;2023-04-24T01:05:00;95186.75;;;11.53;100.00
4617;BME280;2321;42.704;23.384;2023-04-24T01:07:28;95181.03;;;11.50;100.00
4617;BME280;2321;42.704;23.384;2023-04-24T01:09:55;95184.50;;;11.50;100.00
4617;BME280;2321;42.704;23.384;2023-04-24T01:12:24;95183.28;;;11.53;100.00
4617;BME280;2321;42.704;23.384;2023-04-24T01:14:51;95177.53;;;11.56;100.00
4617;BME280;2321;42.704;23.384;2023-04-24T01:17:18;95179.41;;;11.55;100.00
4617;BME280;2321;42.704;23.384;2023-04-24T01:19:44;95176.50;;;11.57;100.00
4617;BME280;2321;42.704;23.384;2023-04-24T01:22:14;95174.88;;;11.63;100.00
4617;BME280;2321;42.704;23.384;2023-04-24T01:24:42;95172.84;;;11.65;100.00
4617;BME280;2321;42.704;23.384;2023-04-24T01:27:09;95160.31;;;11.59;100.00
4617;BME280;2321;42.704;23.384;2023-04-24T01:29:37;95173.44;;;11.67;100.00
4617;BME280;2321;42.704;23.384;2023-04-24T01:32:04;95164.63;;;11.66;100.00
4617;BME280;2321;42.704;23.384;2023-04-24T01:34:32;95158.28;;;11.68;100.00
4617;BME280;2321;42.704;23.384;2023-04-24T01:36:59;95135.50;;;11.51;100.00
4617;BME280;2321;42.704;23.384;2023-04-24T01:39:27;95162.78;;;11.60;100.00
4617;BME280;2321;42.704;23.384;2023-04-24T01:41:54;95151.28;;;11.60;100.00
4617;BME280;2321;42.704;23.384;2023-04-24T01:44:21;95161.13;;;11.52;100.00
4617;BME280;2321;42.704;23.384;2023-04-24T01:46:48;95159.06;;;11.48;100.00
4617;BME280;2321;42.704;23.384;2023-04-24T01:49:15;95157.22;;;11.48;100.00
4617;BME280;2321;42.704;23.384;2023-04-24T01:51:42;95150.44;;;11.39;100.00
4617;BME280;2321;42.704;23.384;2023-04-24T01:54:09;95138.34;;;11.29;100.00
4617;BME280;2321;42.704;23.384;2023-04-24T01:56:39;95145.31;;;11.24;100.00
4617;BME280;2321;42.704;23.384;2023-04-24T01:59:07;95148.19;;;11.22;100.00
4617;BME280;2321;42.704;23.384;2023-04-24T02:01:36;95145.91;;;11.26;100.00
4617;BME280;2321;42.704;23.384;2023-04-24T02:04:03;95140.34;;;11.14;100.00
4617;BME280;2321;42.704;23.384;2023-04-24T02:06:30;95141.41;;;11.13;100.00
4617;BME280;2321;42.704;23.384;2023-04-24T02:08:57;95137.69;;;11.14;100.00
4617;BME280;2321;42.704;23.384;2023-04-24T02:11:24;95145.28;;;11.10;100.00
4617;BME280;2321;42.704;23.384;2023-04-24T02:13:53;95139.97;;;11.10;100.00
4617;BME280;2321;42.704;23.384;2023-04-24T02:16:20;95135.84;;;11.00;100.00
4617;BME280;2321;42.704;23.384;2023-04-24T02:18:47;95128.44;;;10.96;100.00
4617;BME280;2321;42.704;23.384;2023-04-24T02:21:13;95130.91;;;10.91;100.00
4617;BME280;2321;42.704;23.384;2023-04-24T02:23:40;95136.22;;;10.91;100.00
4617;BME280;2321;42.704;23.384;2023-04-24T02:26:07;95144.81;;;10.93;100.00
4617;BME280;2321;42.704;23.384;2023-04-24T02:28:34;95137.03;;;10.91;100.00
4617;BME280;2321;42.704;23.384;2023-04-24T02:31:02;95135.00;;;10.93;100.00
4617;BME280;2321;42.704;23.384;2023-04-24T02:33:30;95136.00;;;10.85;100.00
4617;BME280;2321;42.704;23.384;2023-04-24T02:35:57;95142.78;;;10.88;100.00
4617;BME280;2321;42.704;23.384;2023-04-24T02:38:24;95139.69;;;10.84;100.00
4617;BME280;2321;42.704;23.384;2023-04-24T02:40:51;95125.13;;;10.80;100.00
4617;BME280;2321;42.704;23.384;2023-04-24T02:43:18;95132.50;;;10.78;100.00
4617;BME280;2321;42.704;23.384;2023-04-24T02:45:45;95128.41;;;10.75;100.00
4617;BME280;2321;42.704;23.384;2023-04-24T02:48:13;95120.19;;;10.70;100.00
4617;BME280;2321;42.704;23.384;2023-04-24T02:50:40;95111.78;;;10.66;100.00
4617;BME280;2321;42.704;23.384;2023-04-24T02:53:07;95116.31;;;10.73;100.00
4617;BME280;2321;42.704;23.384;2023-04-24T02:55:34;95115.66;;;10.71;100.00
4617;BME280;2321;42.704;23.384;2023-04-24T02:58:01;95127.09;;;10.64;100.00
4617;BME280;2321;42.704;23.384;2023-04-24T03:00:28;95096.09;;;10.50;100.00
4617;BME280;2321;42.704;23.384;2023-04-24T03:02:55;95113.78;;;10.64;100.00
4617;BME280;2321;42.704;23.384;2023-04-24T03:05:23;95115.84;;;10.62;100.00
4617;BME280;2321;42.704;23.384;2023-04-24T03:07:50;95115.63;;;10.57;100.00
4617;BME280;2321;42.704;23.384;2023-04-24T03:10:18;95120.31;;;10.55;100.00
4617;BME280;2321;42.704;23.384;2023-04-24T03:12:44;95121.97;;;10.56;100.00
4617;BME280;2321;42.704;23.384;2023-04-24T03:15:11;95123.38;;;10.52;100.00
4617;BME280;2321;42.704;23.384;2023-04-24T03:17:38;95123.38;;;10.52;100.00
4617;BME280;2321;42.704;23.384;2023-04-24T03:20:06;95124.00;;;10.54;100.00
4617;BME280;2321;42.704;23.384;2023-04-24T03:22:35;95119.69;;;10.53;100.00
4617;BME280;2321;42.704;23.384;2023-04-24T03:25:02;95122.72;;;10.50;100.00
4617;BME280;2321;42.704;23.384;2023-04-24T03:27:29;95121.09;;;10.49;100.00
4617;BME280;2321;42.704;23.384;2023-04-24T03:29:56;95126.44;;;10.49;100.00
4617;BME280;2321;42.704;23.384;2023-04-24T03:32:23;95129.28;;;10.47;100.00
4617;BME280;2321;42.704;23.384;2023-04-24T03:34:49;95129.88;;;10.49;100.00
4617;BME280;2321;42.704;23.384;2023-04-24T03:37:17;95127.03;;;10.51;100.00
4617;BME280;2321;42.704;23.384;2023-04-24T03:39:45;95127.88;;;10.51;100.00
4617;BME280;2321;42.704;23.384;2023-04-24T03:42:12;95129.88;;;10.49;100.00
4617;BME280;2321;42.704;23.384;2023-04-24T03:44:38;95140.53;;;10.49;100.00
4617;BME280;2321;42.704;23.384;2023-04-24T03:47:05;95135.66;;;10.53;100.00
4617;BME280;2321;42.704;23.384;2023-04-24T03:49:32;95130.56;;;10.58;100.00
4617;BME280;2321;42.704;23.384;2023-04-24T03:51:59;95129.56;;;10.59;100.00
4617;BME280;2321;42.704;23.384;2023-04-24T03:54:26;95135.31;;;10.63;100.00
4617;BME280;2321;42.704;23.384;2023-04-24T03:56:54;95129.78;;;10.64;100.00
4617;BME280;2321;42.704;23.384;2023-04-24T03:59:21;95130.41;;;10.66;100.00
4617;BME280;2321;42.704;23.384;2023-04-24T04:01:48;95121.78;;;10.64;100.00
4617;BME280;2321;42.704;23.384;2023-04-24T04:04:15;95130.41;;;10.66;100.00
4617;BME280;2321;42.704;23.384;2023-04-24T04:06:42;95130.63;;;10.72;100.00
4617;BME280;2321;42.704;23.384;2023-04-24T04:09:12;95135.56;;;10.75;100.00
4617;BME280;2321;42.704;23.384;2023-04-24T04:11:39;95136.81;;;10.79;100.00
4617;BME280;2321;42.704;23.384;2023-04-24T04:14:07;95134.94;;;10.73;100.00
4617;BME280;2321;42.704;23.384;2023-04-24T04:16:34;95146.00;;;10.76;100.00
4617;BME280;2321;42.704;23.384;2023-04-24T04:19:03;95139.47;;;10.79;100.00
4617;BME280;2321;42.704;23.384;2023-04-24T04:21:29;95113.78;;;10.64;100.00
4617;BME280;2321;42.704;23.384;2023-04-24T04:23:57;95140.09;;;10.88;100.00
4617;BME280;2321;42.704;23.384;2023-04-24T04:26:24;95135.41;;;10.90;100.00
4617;BME280;2321;42.704;23.384;2023-04-24T04:28:51;95143.84;;;11.00;100.00
4617;BME280;2321;42.704;23.384;2023-04-24T04:31:20;95151.22;;;11.05;100.00
4617;BME280;2321;42.704;23.384;2023-04-24T04:33:47;95140.16;;;11.08;100.00
4617;BME280;2321;42.704;23.384;2023-04-24T04:36:14;95155.53;;;11.13;100.00
4617;BME280;2321;42.704;23.384;2023-04-24T04:38:42;95148.56;;;11.12;100.00
4617;BME280;2321;42.704;23.384;2023-04-24T04:41:10;95148.34;;;11.07;100.00
4617;BME280;2321;42.704;23.384;2023-04-24T04:43:37;95151.44;;;11.04;100.00
4617;BME280;2321;42.704;23.384;2023-04-24T04:46:06;95153.66;;;11.00;100.00
4617;BME280;2321;42.704;23.384;2023-04-24T04:48:35;95159.81;;;11.00;100.00
4617;BME280;2321;42.704;23.384;2023-04-24T04:51:02;95159.81;;;11.00;100.00
4617;BME280;2321;42.704;23.384;2023-04-24T04:53:29;95161.28;;;11.10;100.00
4617;BME280;2321;42.704;23.384;2023-04-24T04:55:56;95150.63;;;11.10;100.00
4617;BME280;2321;42.704;23.384;2023-04-24T04:58:23;95166.41;;;11.11;100.00
4617;BME280;2321;42.704;23.384;2023-04-24T05:00:50;95170.88;;;11.04;100.00
4617;BME280;2321;42.704;23.384;2023-04-24T05:03:17;95162.88;;;11.04;100.00
4617;BME280;2321;42.704;23.384;2023-04-24T05:05:45;95161.25;;;11.03;100.00
4617;BME280;2321;42.704;23.384;2023-04-24T05:08:12;95178.69;;;11.13;100.00
4617;BME280;2321;42.704;23.384;2023-04-24T05:10:39;95164.56;;;11.19;100.00
4617;BME280;2321;42.704;23.384;2023-04-24T05:13:06;95167.03;;;11.20;100.00
4617;BME280;2321;42.704;23.384;2023-04-24T05:15:33;95171.53;;;11.20;100.00
4617;BME280;2321;42.704;23.384;2023-04-24T05:18:00;95167.03;;;11.27;100.00
4617;BME280;2321;42.704;23.384;2023-04-24T05:20:27;95163.97;;;11.30;100.00
4617;BME280;2321;42.704;23.384;2023-04-24T05:22:55;95169.31;;;11.30;100.00
4617;BME280;2321;42.704;23.384;2023-04-24T05:25:22;95167.66;;;11.29;100.00
4617;BME280;2321;42.704;23.384;2023-04-24T05:27:49;95171.75;;;11.32;100.00
4617;BME280;2321;42.704;23.384;2023-04-24T05:30:16;95165.81;;;11.30;100.00
4617;BME280;2321;42.704;23.384;2023-04-24T05:32:43;95167.25;;;11.32;98.97
4617;BME280;2321;42.704;23.384;2023-04-24T05:35:10;95167.06;;;11.41;97.70
4617;BME280;2321;42.704;23.384;2023-04-24T05:37:37;95161.09;;;11.39;97.27
4617;BME280;2321;42.704;23.384;2023-04-24T05:40:07;95165.03;;;11.43;96.47
4617;BME280;2321;42.704;23.384;2023-04-24T05:42:34;95166.88;;;11.49;96.56
4617;BME280;2321;42.704;23.384;2023-04-24T05:45:01;95171.16;;;11.50;98.26
4617;BME280;2321;42.704;23.384;2023-04-24T05:47:28;95170.78;;;11.60;97.35
4617;BME280;2321;42.704;23.384;2023-04-24T05:49:55;95173.22;;;11.69;98.02
4617;BME280;2321;42.704;23.384;2023-04-24T05:52:21;95175.88;;;11.69;97.20
4617;BME280;2321;42.704;23.384;2023-04-24T05:54:48;95169.34;;;11.71;97.87
4617;BME280;2321;42.704;23.384;2023-04-24T05:57:17;95151.50;;;11.65;98.28
4617;BME280;2321;42.704;23.384;2023-04-24T05:59:43;95170.34;;;11.84;98.06
4617;BME280;2321;42.704;23.384;2023-04-24T06:02:10;95172.59;;;11.94;99.47
4617;BME280;2321;42.704;23.384;2023-04-24T06:04:37;95169.72;;;12.02;99.04
4617;BME280;2321;42.704;23.384;2023-04-24T06:07:04;95169.13;;;12.14;100.00
4617;BME280;2321;42.704;23.384;2023-04-24T06:09:31;95174.25;;;12.22;98.88
4617;BME280;2321;42.704;23.384;2023-04-24T06:11:59;95174.84;;;12.31;98.99
4617;BME280;2321;42.704;23.384;2023-04-24T06:14:27;95176.47;;;12.46;98.43
4617;BME280;2321;42.704;23.384;2023-04-24T06:16:54;95164.94;;;12.45;99.06
4617;BME280;2321;42.704;23.384;2023-04-24T06:19:21;95170.25;;;12.59;100.00
4617;BME280;2321;42.704;23.384;2023-04-24T06:21:47;95163.44;;;12.70;97.90
4617;BME280;2321;42.704;23.384;2023-04-24T06:24:15;95170.56;;;12.90;100.00
4617;BME280;2321;42.704;23.384;2023-04-24T06:26:42;95165.38;;;13.02;97.44
4617;BME280;2321;42.704;23.384;2023-04-24T06:29:09;95170.88;;;13.07;97.28
4617;BME280;2321;42.704;23.384;2023-04-24T06:31:37;95174.53;;;13.13;95.82
4617;BME280;2321;42.704;23.384;2023-04-24T06:34:04;95162.56;;;13.22;93.83
4617;BME280;2321;42.704;23.384;2023-04-24T06:36:31;95166.31;;;13.21;93.19
4617;BME280;2321;42.704;23.384;2023-04-24T06:38:59;95165.44;;;13.27;92.93
4617;BME280;2321;42.704;23.384;2023-04-24T06:41:27;95169.97;;;13.27;94.82
4617;BME280;2321;42.704;23.384;2023-04-24T06:43:54;95175.13;;;13.22;94.48
4617;BME280;2321;42.704;23.384;2023-04-24T06:46:21;95170.78;;;13.27;94.51
4617;BME280;2321;42.704;23.384;2023-04-24T06:48:53;95175.28;;;13.34;95.31
4617;BME280;2321;42.704;23.384;2023-04-24T06:51:22;95164.91;;;13.44;95.80
4617;BME280;2321;42.704;23.384;2023-04-24T06:53:49;95171.81;;;13.59;93.77
4617;BME280;2321;42.704;23.384;2023-04-24T06:56:16;95169.94;;;13.66;91.75
4617;BME280;2321;42.704;23.384;2023-04-24T06:58:43;95167.59;;;13.77;92.87
4617;BME280;2321;42.704;23.384;2023-04-24T07:01:10;95163.81;;;13.85;91.40
4617;BME280;2321;42.704;23.384;2023-04-24T07:03:37;95154.88;;;13.98;91.03
4617;BME280;2321;42.704;23.384;2023-04-24T07:06:06;95158.28;;;14.05;90.89
4617;BME280;2321;42.704;23.384;2023-04-24T07:08:33;95159.44;;;14.16;92.40
4617;BME280;2321;42.704;23.384;2023-04-24T07:11:01;95154.75;;;14.30;88.73
4617;BME280;2321;42.704;23.384;2023-04-24T07:13:28;95146.81;;;14.42;89.00
4617;BME280;2321;42.704;23.384;2023-04-24T07:15:55;95158.56;;;14.60;87.59
4617;BME280;2321;42.704;23.384;2023-04-24T07:18:22;95156.84;;;14.66;85.08
4617;BME280;2321;42.704;23.384;2023-04-24T07:20:49;95151.56;;;14.78;85.60
4617;BME280;2321;42.704;23.384;2023-04-24T07:23:18;95151.03;;;14.88;84.64
4617;BME280;2321;42.704;23.384;2023-04-24T07:25:45;95155.09;;;15.09;83.88
4617;BME280;2321;42.704;23.384;2023-04-24T07:28:12;95147.34;;;15.20;79.67
4617;BME280;2321;42.704;23.384;2023-04-24T07:30:39;95146.34;;;15.33;84.17
4617;BME280;2321;42.704;23.384;2023-04-24T07:33:06;95152.41;;;15.40;81.91
4617;BME280;2321;42.704;23.384;2023-04-24T07:35:33;95137.03;;;15.48;81.20
4617;BME280;2321;42.704;23.384;2023-04-24T07:38:00;95139.28;;;15.63;75.41
4617;BME280;2321;42.704;23.384;2023-04-24T07:40:37;95141.53;;;15.78;74.19
4617;BME280;2321;42.704;23.384;2023-04-24T07:43:20;95136.72;;;15.80;69.76
4617;BME280;2321;42.704;23.384;2023-04-24T07:45:47;95146.06;;;15.77;67.24
4617;BME280;2321;42.704;23.384;2023-04-24T07:48:14;95142.09;;;15.80;67.12
4617;BME280;2321;42.704;23.384;2023-04-24T07:50:41;95138.03;;;15.89;71.56
4617;BME280;2321;42.704;23.384;2023-04-24T07:53:08;95138.78;;;16.09;74.68
4617;BME280;2321;42.704;23.384;2023-04-24T07:55:37;95134.56;;;16.25;68.01
4617;BME280;2321;42.704;23.384;2023-04-24T07:58:04;95132.66;;;16.38;66.07
4617;BME280;2321;42.704;23.384;2023-04-24T08:00:31;95128.69;;;16.52;64.99
4617;BME280;2321;42.704;23.384;2023-04-24T08:02:58;95125.25;;;16.69;62.72
4617;BME280;2321;42.704;23.384;2023-04-24T08:05:25;95126.28;;;16.80;64.33
4617;BME280;2321;42.704;23.384;2023-04-24T08:07:54;95131.22;;;17.01;64.68
4617;BME280;2321;42.704;23.384;2023-04-24T08:10:21;95119.69;;;17.17;62.17
4617;BME280;2321;42.704;23.384;2023-04-24T08:12:49;95112.88;;;17.27;63.55
4617;BME280;2321;42.704;23.384;2023-04-24T08:15:16;95114.53;;;17.45;61.31
4617;BME280;2321;42.704;23.384;2023-04-24T08:17:43;95113.34;;;17.53;58.03
4617;BME280;2321;42.704;23.384;2023-04-24T08:20:11;95114.91;;;17.66;57.05
4617;BME280;2321;42.704;23.384;2023-04-24T08:22:39;95105.94;;;17.78;58.20
4617;BME280;2321;42.704;23.384;2023-04-24T08:25:06;95101.00;;;17.92;58.83
4617;BME280;2321;42.704;23.384;2023-04-24T08:27:33;95099.59;;;18.06;57.71
4617;BME280;2321;42.704;23.384;2023-04-24T08:30:04;95101.41;;;18.18;56.58
4617;BME280;2321;42.704;23.384;2023-04-24T08:32:31;95100.25;;;18.14;54.67
4617;BME280;2321;42.704;23.384;2023-04-24T08:34:59;95096.78;;;18.18;52.26
4617;BME280;2321;42.704;23.384;2023-04-24T08:37:26;95090.13;;;18.21;54.10
4617;BME280;2321;42.704;23.384;2023-04-24T08:39:54;95094.78;;;18.26;51.80
4617;BME280;2321;42.704;23.384;2023-04-24T08:42:21;95094.34;;;18.34;51.36
4617;BME280;2321;42.704;23.384;2023-04-24T08:44:49;95085.25;;;18.40;53.14
4617;BME280;2321;42.704;23.384;2023-04-24T08:47:17;95088.34;;;18.49;53.91
4617;BME280;2321;42.704;23.384;2023-04-24T08:49:48;95085.00;;;18.65;56.04
4617;BME280;2321;42.704;23.384;2023-04-24T08:52:15;95078.91;;;18.75;52.17
4617;BME280;2321;42.704;23.384;2023-04-24T08:54:42;95075.72;;;18.78;51.63
4617;BME280;2321;42.704;23.384;2023-04-24T08:57:11;95070.22;;;18.67;51.25
4617;BME280;2321;42.704;23.384;2023-04-24T08:59:40;95071.53;;;18.65;51.26
4617;BME280;2321;42.704;23.384;2023-04-24T09:02:10;95062.19;;;18.72;53.37
4617;BME280;2321;42.704;23.384;2023-04-24T09:04:40;95067.06;;;18.98;56.05
4617;BME280;2321;42.704;23.384;2023-04-24T09:07:08;95058.56;;;19.17;51.16
4617;BME280;2321;42.704;23.384;2023-04-24T09:09:38;95056.25;;;19.26;50.51
4617;BME280;2321;42.704;23.384;2023-04-24T09:12:05;95062.75;;;19.25;48.69
4617;BME280;2321;42.704;23.384;2023-04-24T09:14:34;95047.31;;;19.20;48.64
4617;BME280;2321;42.704;23.384;2023-04-24T09:17:04;95046.78;;;19.23;49.46
4617;BME280;2321;42.704;23.384;2023-04-24T09:19:32;95040.16;;;19.36;48.59
4617;BME280;2321;42.704;23.384;2023-04-24T09:22:04;95034.78;;;19.42;49.95
4617;BME280;2321;42.704;23.384;2023-04-24T09:24:31;95035.63;;;19.47;48.54
4617;BME280;2321;42.704;23.384;2023-04-24T09:26:58;95037.09;;;19.60;49.11
4617;BME280;2321;42.704;23.384;2023-04-24T09:29:27;95030.34;;;19.58;47.52
4617;BME280;2321;42.704;23.384;2023-04-24T09:31:54;95027.22;;;19.38;47.03
4617;BME280;2321;42.704;23.384;2023-04-24T09:34:22;95027.91;;;19.23;47.77
4617;BME280;2321;42.704;23.384;2023-04-24T09:36:50;95016.84;;;19.25;47.53
4617;BME280;2321;42.704;23.384;2023-04-24T09:39:19;95016.66;;;19.32;46.13
4617;BME280;2321;42.704;23.384;2023-04-24T09:41:47;95018.59;;;19.42;45.90
4617;BME280;2321;42.704;23.384;2023-04-24T09:44:15;95011.41;;;19.53;46.70
4617;BME280;2321;42.704;23.384;2023-04-24T09:46:43;95008.31;;;19.77;49.00
4617;BME280;2321;42.704;23.384;2023-04-24T09:49:12;95016.00;;;20.01;48.97
4617;BME280;2321;42.704;23.384;2023-04-24T09:51:40;95013.91;;;20.08;48.10
4617;BME280;2321;42.704;23.384;2023-04-24T09:54:14;95011.00;;;20.20;48.37
4617;BME280;2321;42.704;23.384;2023-04-24T09:56:44;95015.66;;;20.35;47.56
4617;BME280;2321;42.704;23.384;2023-04-24T09:59:12;95006.22;;;20.49;46.76
4617;BME280;2321;42.704;23.384;2023-04-24T10:01:39;95007.09;;;20.60;45.81
4617;BME280;2321;42.704;23.384;2023-04-24T10:04:15;95008.72;;;20.71;45.44
4617;BME280;2321;42.704;23.384;2023-04-24T10:06:43;94992.50;;;20.76;45.66
4617;BME280;2321;42.704;23.384;2023-04-24T10:09:10;94986.59;;;20.90;46.86
4617;BME280;2321;42.704;23.384;2023-04-24T10:11:41;94987.44;;;21.11;47.21
4617;BME280;2321;42.704;23.384;2023-04-24T10:14:12;94986.34;;;21.28;44.84
4617;BME280;2321;42.704;23.384;2023-04-24T10:16:40;94986.34;;;21.44;43.87
4617;BME280;2321;42.704;23.384;2023-04-24T10:19:07;94969.03;;;21.45;43.03
4617;BME280;2321;42.704;23.384;2023-04-24T10:21:34;94971.19;;;21.43;41.56
4617;BME280;2321;42.704;23.384;2023-04-24T10:24:03;94966.31;;;21.34;40.17
4617;BME280;2321;42.704;23.384;2023-04-24T10:26:33;94960.63;;;21.36;42.45
4617;BME280;2321;42.704;23.384;2023-04-24T10:29:01;94955.22;;;21.41;42.58
4617;BME280;2321;42.704;23.384;2023-04-24T10:31:31;94958.72;;;21.52;41.88
4617;BME280;2321;42.704;23.384;2023-04-24T10:33:59;94960.91;;;21.55;40.73
4617;BME280;2321;42.704;23.384;2023-04-24T10:36:28;94960.59;;;21.57;40.79
4617;BME280;2321;42.704;23.384;2023-04-24T10:38:59;94956.28;;;21.61;41.07
4617;BME280;2321;42.704;23.384;2023-04-24T10:41:27;94955.41;;;21.71;41.50
4617;BME280;2321;42.704;23.384;2023-04-24T10:44:07;94949.97;;;21.82;42.14
4617;BME280;2321;42.704;23.384;2023-04-24T10:46:35;94936.97;;;21.94;40.31
4617;BME280;2321;42.704;23.384;2023-04-24T10:49:04;94934.22;;;21.99;41.06
4617;BME280;2321;42.704;23.384;2023-04-24T10:51:45;94928.75;;;22.15;40.10
4617;BME280;2321;42.704;23.384;2023-04-24T10:54:24;94921.94;;;22.23;41.14
4617;BME280;2321;42.704;23.384;2023-04-24T10:56:51;94933.28;;;22.30;39.99
4617;BME280;2321;42.704;23.384;2023-04-24T10:59:25;94920.81;;;22.29;40.91
4617;BME280;2321;42.704;23.384;2023-04-24T11:01:56;94919.44;;;22.37;40.78
4617;BME280;2321;42.704;23.384;2023-04-24T11:04:30;94919.91;;;22.50;41.07
4617;BME280;2321;42.704;23.384;2023-04-24T11:06:57;94916.59;;;22.58;39.83
4617;BME280;2321;42.704;23.384;2023-04-24T11:09:26;94916.75;;;22.32;39.55
4617;BME280;2321;42.704;23.384;2023-04-24T11:12:03;94915.50;;;22.08;39.65
4617;BME280;2321;42.704;23.384;2023-04-24T11:14:59;94915.03;;;21.85;40.43
4617;BME280;2321;42.704;23.384;2023-04-24T11:17:32;94912.88;;;21.72;40.23
4617;BME280;2321;42.704;23.384;2023-04-24T11:20:02;94896.44;;;21.52;39.50
4617;BME280;2321;42.704;23.384;2023-04-24T11:22:33;94896.47;;;21.42;39.52
4617;BME280;2321;42.704;23.384;2023-04-24T11:25:01;94900.81;;;21.32;39.80
4617;BME280;2321;42.704;23.384;2023-04-24T11:27:30;94898.66;;;21.14;39.87
4617;BME280;2321;42.704;23.384;2023-04-24T11:30:02;94918.44;;;21.04;40.83
4617;BME280;2321;42.704;23.384;2023-04-24T11:32:34;94934.66;;;20.88;48.07
4617;BME280;2321;42.704;23.384;2023-04-24T11:35:03;94947.84;;;20.58;60.91
4617;BME280;2321;42.704;23.384;2023-04-24T11:37:35;94965.41;;;19.86;65.52
4617;BME280;2321;42.704;23.384;2023-04-24T11:40:03;94961.34;;;19.34;80.37
4617;BME280;2321;42.704;23.384;2023-04-24T11:42:33;94949.09;;;18.88;75.79
4617;BME280;2321;42.704;23.384;2023-04-24T11:45:01;94935.84;;;18.59;84.17
4617;BME280;2321;42.704;23.384;2023-04-24T11:47:31;94936.16;;;18.62;91.21
4617;BME280;2321;42.704;23.384;2023-04-24T11:49:59;94929.06;;;18.84;100.00
4617;BME280;2321;42.704;23.384;2023-04-24T11:52:27;94928.31;;;18.89;93.39
4617;BME280;2321;42.704;23.384;2023-04-24T11:54:54;94922.97;;;18.94;82.04
4617;BME280;2321;42.704;23.384;2023-04-24T11:57:21;94931.41;;;19.08;79.73
4617;BME280;2321;42.704;23.384;2023-04-24T11:59:48;94925.72;;;19.37;78.70
4617;BME280;2321;42.704;23.384;2023-04-24T12:02:22;94913.72;;;19.61;69.63
4617;BME280;2321;42.704;23.384;2023-04-24T12:04:51;94896.97;;;19.64;59.04
4617;BME280;2321;42.704;23.384;2023-04-24T12:07:18;94905.69;;;19.77;57.39
4617;BME280;2321;42.704;23.384;2023-04-24T12:09:46;94904.88;;;19.81;52.66
4617;BME280;2321;42.704;23.384;2023-04-24T12:12:14;94910.88;;;19.89;53.26
4617;BME280;2321;42.704;23.384;2023-04-24T12:14:47;94904.94;;;19.92;49.53
4617;BME280;2321;42.704;23.384;2023-04-24T12:17:15;94900.06;;;19.94;50.55
4617;BME280;2321;42.704;23.384;2023-04-24T12:19:46;94897.13;;;20.01;50.38
4617;BME280;2321;42.704;23.384;2023-04-24T12:22:14;94889.03;;;20.01;48.72
4617;BME280;2321;42.704;23.384;2023-04-24T12:24:57;94882.56;;;20.07;50.68
4617;BME280;2321;42.704;23.384;2023-04-24T12:27:24;94883.09;;;19.99;47.65
4617;BME280;2321;42.704;23.384;2023-04-24T12:29:52;94884.69;;;20.00;49.33
4617;BME280;2321;42.704;23.384;2023-04-24T12:32:19;94878.75;;;19.98;49.06
4617;BME280;2321;42.704;23.384;2023-04-24T12:34:46;94867.13;;;19.92;48.77
4617;BME280;2321;42.704;23.384;2023-04-24T12:37:14;94866.84;;;19.93;48.44
4617;BME280;2321;42.704;23.384;2023-04-24T12:39:57;94858.72;;;19.93;49.28
4617;BME280;2321;42.704;23.384;2023-04-24T12:42:26;94846.84;;;19.95;48.13
4617;BME280;2321;42.704;23.384;2023-04-24T12:44:56;94832.78;;;19.77;49.25
4617;BME280;2321;42.704;23.384;2023-04-24T12:47:25;94844.69;;;19.81;50.60
4617;BME280;2321;42.704;23.384;2023-04-24T12:49:52;94835.19;;;19.78;49.99
4617;BME280;2321;42.704;23.384;2023-04-24T12:52:22;94829.78;;;19.78;51.34
4617;BME280;2321;42.704;23.384;2023-04-24T12:54:49;94829.81;;;19.84;49.96
4617;BME280;2321;42.704;23.384;2023-04-24T12:57:17;94821.19;;;19.92;51.67
4617;BME280;2321;42.704;23.384;2023-04-24T12:59:44;94816.84;;;19.91;48.67
4617;BME280;2321;42.704;23.384;2023-04-24T13:02:11;94806.34;;;19.95;48.69
4617;BME280;2321;42.704;23.384;2023-04-24T13:04:38;94799.34;;;19.99;49.43
4617;BME280;2321;42.704;23.384;2023-04-24T13:07:06;94803.97;;;20.14;52.27
4617;BME280;2321;42.704;23.384;2023-04-24T13:09:34;94799.91;;;20.27;53.10
4617;BME280;2321;42.704;23.384;2023-04-24T13:12:01;94801.56;;;20.44;53.94